Terminal Aerodrome Forecast
Issued by NWS Sioux Falls, SD

Home | Current Version | Previous Version | Text Only | Print | Product List | Glossary On
Versions: 1 2 3 4 5 6 7 8 9 10 11 12 13 14 15 16 17 18 19
000
FTUS43 KFSD 240721 AAA
TAFSUX
TAF AMD
KSUX 240721Z 2407/2506 32010KT P6SM -RA SCT035 OVC070
     FM240800 08007KT P6SM -RA OVC040
     FM241000 05008KT 5SM -RA OVC025
     FM241800 03014G23KT 5SM -SHRA BR OVC008
     FM242100 02016G25KT 2SM -RA OVC010=

USA.gov is the U.S. government's official web portal to all federal, state and local government web resources and services.